Time;durP1;ratioP1;P1;durP2;ratioP2;P2;SDS_P1;SDS_P2;PMS_P1;PMS_P2;Temp;Humidity;BMP_temperature;BMP_pressure;BME280_temperature;BME280_humidity;BME280_pressure;Samples;Min_cycle;Max_cycle;Signal;HPM_P1;HPM_P2
2023/11/24 00:00:08;;;;;;;4.83;2.90;;;;;;;10.18;100.00;101101.53;2096769;28;20200;-71
2023/11/24 00:01:09;;;;;;;3.93;2.53;;;;;;;10.13;100.00;101096.44;2097113;28;20186;-71
2023/11/24 00:02:09;;;;;;;5.13;3.03;;;;;;;10.13;100.00;101099.22;2093264;28;20447;-71
2023/11/24 00:03:10;;;;;;;5.23;2.97;;;;;;;10.14;100.00;101098.00;2089104;28;20829;-71
2023/11/24 00:04:10;;;;;;;4.57;3.20;;;;;;;9.76;100.00;101035.66;2090494;28;20248;-71
2023/11/24 00:05:11;;;;;;;3.90;2.80;;;;;;;10.19;100.00;101088.47;2096709;28;20204;-71
2023/11/24 00:06:12;;;;;;;5.67;3.30;;;;;;;10.19;100.00;101080.16;2089299;28;20184;-71
2023/11/24 00:07:13;;;;;;;4.70;3.23;;;;;;;9.84;100.00;101036.34;2096116;28;20610;-71
2023/11/24 00:08:13;;;;;;;4.50;2.83;;;;;;;10.19;100.00;101089.22;2091296;28;20470;-71
2023/11/24 00:09:13;;;;;;;4.63;2.87;;;;;;;10.20;100.00;101084.47;2089045;28;20249;-71
2023/11/24 00:10:14;;;;;;;4.30;2.70;;;;;;;10.08;100.00;101080.31;2089277;28;20249;-71
2023/11/24 00:11:15;;;;;;;6.27;2.87;;;;;;;10.01;100.00;101080.38;2090686;28;20187;-71
2023/11/24 00:12:15;;;;;;;5.03;2.77;;;;;;;10.01;100.00;101077.63;2096286;28;20179;-71
2023/11/24 00:13:17;;;;;;;4.53;2.60;;;;;;;10.05;100.00;101077.59;2089511;28;20461;-71
2023/11/24 00:14:18;;;;;;;4.60;2.87;;;;;;;9.13;100.00;100930.59;2098013;28;20184;-71
2023/11/24 00:15:19;;;;;;;4.67;2.57;;;;;;;10.11;100.00;101070.38;2096988;28;20437;-71
2023/11/24 00:16:20;;;;;;;5.50;3.17;;;;;;;10.08;100.00;101069.22;2096537;28;20193;-71
2023/11/24 00:17:22;;;;;;;5.67;3.03;;;;;;;10.12;100.00;101072.72;2096171;28;20188;-71
2023/11/24 00:18:22;;;;;;;4.87;3.07;;;;;;;10.13;100.00;101079.03;2096497;28;20577;-71
2023/11/24 00:19:22;;;;;;;5.13;3.10;;;;;;;10.13;100.00;101065.97;2094849;28;20425;-71
2023/11/24 00:20:25;;;;;;;5.20;2.83;;;;;;;10.13;100.00;101065.97;2089824;28;20173;-71
2023/11/24 00:21:26;;;;;;;4.77;2.97;;;;;;;10.14;100.00;101064.00;2095837;28;20186;-71
2023/11/24 00:22:26;;;;;;;6.37;2.47;;;;;;;10.15;100.00;101060.03;2096648;28;20844;-71
2023/11/24 00:23:27;;;;;;;6.07;2.77;;;;;;;10.06;100.00;101051.47;2090543;28;20722;-71
2023/11/24 00:24:27;;;;;;;5.57;2.80;;;;;;;10.08;100.00;101055.38;2094371;28;20191;-71
2023/11/24 00:25:31;;;;;;;4.80;2.80;;;;;;;10.06;100.00;101043.16;2092754;28;20610;-71
2023/11/24 00:26:31;;;;;;;5.70;2.97;;;;;;;9.38;100.00;100936.59;2088308;28;20686;-71
2023/11/24 00:27:32;;;;;;;5.50;2.70;;;;;;;10.12;100.00;101049.78;2088886;28;20508;-71
2023/11/24 00:28:33;;;;;;;4.73;2.57;;;;;;;10.10;100.00;101041.13;2088992;28;20601;-71
2023/11/24 00:29:34;;;;;;;7.63;2.97;;;;;;;10.10;100.00;101039.13;2089374;28;20658;-71
2023/11/24 00:30:35;;;;;;;4.00;2.53;;;;;;;10.13;100.00;101043.03;2096365;28;20905;-71
2023/11/24 00:31:36;;;;;;;4.60;2.60;;;;;;;10.15;100.00;101040.66;2090244;28;20204;-71
2023/11/24 00:32:39;;;;;;;4.83;2.70;;;;;;;10.14;100.00;101034.31;2089129;28;20241;-71
2023/11/24 00:33:40;;;;;;;6.83;2.83;;;;;;;9.66;100.00;100961.88;2093148;28;20599;-71
2023/11/24 00:34:40;;;;;;;4.17;2.60;;;;;;;10.06;100.00;101016.25;2096608;28;20483;-71
2023/11/24 00:35:41;;;;;;;3.83;2.70;;;;;;;10.04;100.00;101020.66;2095163;28;20222;-71
2023/11/24 00:36:41;;;;;;;5.60;2.83;;;;;;;9.99;100.00;101018.31;2088687;28;20169;-71
2023/11/24 00:37:42;;;;;;;4.73;2.70;;;;;;;9.96;100.00;101021.91;2097523;28;20733;-71
2023/11/24 00:38:42;;;;;;;5.20;2.70;;;;;;;9.49;100.00;100942.75;2089530;28;20191;-71
2023/11/24 00:39:44;;;;;;;4.50;2.80;;;;;;;9.80;100.00;100986.56;2088872;28;20279;-71
2023/11/24 00:40:44;;;;;;;5.47;2.70;;;;;;;9.90;100.00;101021.59;2089202;28;20203;-71
2023/11/24 00:41:45;;;;;;;4.40;2.53;;;;;;;9.89;100.00;101011.72;2091831;28;20445;-71
2023/11/24 00:42:45;;;;;;;5.13;2.40;;;;;;;9.84;100.00;101012.19;2097140;28;20167;-71
2023/11/24 00:43:47;;;;;;;5.00;2.83;;;;;;;9.86;100.00;101007.03;2095848;28;20191;-71
2023/11/24 00:44:48;;;;;;;4.30;2.50;;;;;;;9.82;100.00;101006.31;2095952;28;20726;-71
2023/11/24 00:45:49;;;;;;;6.20;2.47;;;;;;;9.84;100.00;101003.88;2097500;28;20916;-71
2023/11/24 00:46:49;;;;;;;6.43;3.07;;;;;;;9.84;100.00;101000.34;2096003;28;20199;-71
2023/11/24 00:47:50;;;;;;;3.73;2.43;;;;;;;9.82;100.00;101000.75;2091022;28;20376;-71
2023/11/24 00:48:51;;;;;;;4.70;2.67;;;;;;;9.78;100.00;100988.19;2088163;28;20513;-71
2023/11/24 00:49:52;;;;;;;4.83;2.70;;;;;;;9.76;100.00;101001.66;2092025;28;20184;-71
2023/11/24 00:50:52;;;;;;;3.20;2.23;;;;;;;9.71;100.00;100988.28;2096812;28;20414;-71
2023/11/24 00:51:53;;;;;;;4.07;2.87;;;;;;;9.68;100.00;100986.34;2096732;28;20272;-71
2023/11/24 00:52:53;;;;;;;7.90;3.27;;;;;;;9.69;100.00;100985.91;2097386;28;20236;-71
2023/11/24 00:53:53;;;;;;;4.37;2.43;;;;;;;9.59;100.00;100959.19;2097172;28;20298;-71
2023/11/24 00:54:54;;;;;;;6.07;2.97;;;;;;;9.54;100.00;100942.28;2097105;28;20191;-71
2023/11/24 00:55:56;;;;;;;4.17;2.20;;;;;;;9.64;100.00;100946.88;2091867;28;20182;-71
2023/11/24 00:56:56;;;;;;;3.90;2.60;;;;;;;9.73;100.00;100972.06;2092529;28;20192;-71
2023/11/24 00:57:58;;;;;;;4.87;2.67;;;;;;;9.62;100.00;100965.88;2096768;28;20456;-70
2023/11/24 00:58:59;;;;;;;4.23;2.53;;;;;;;9.57;100.00;100953.28;2096572;28;20174;-71
2023/11/24 01:00:01;;;;;;;5.90;2.43;;;;;;;9.41;100.00;100964.19;2096776;28;20442;-71
2023/11/24 01:01:04;;;;;;;4.37;2.77;;;;;;;9.36;100.00;100959.13;2088892;28;20418;-71
2023/11/24 01:02:04;;;;;;;5.07;2.93;;;;;;;9.30;100.00;100948.94;2096305;28;20434;-71
2023/11/24 01:03:05;;;;;;;4.30;2.60;;;;;;;9.28;100.00;100954.88;2096709;28;20437;-71
2023/11/24 01:04:07;;;;;;;7.07;3.00;;;;;;;8.83;100.00;100878.88;2091433;28;20188;-71
2023/11/24 01:05:09;;;;;;;5.37;2.80;;;;;;;9.24;100.00;100950.59;2088516;28;20213;-71
2023/11/24 01:06:09;;;;;;;3.87;2.70;;;;;;;9.23;100.00;100937.97;2088331;28;20959;-71
2023/11/24 01:07:10;;;;;;;4.40;2.50;;;;;;;9.16;100.00;100944.38;2088386;28;20821;-71
2023/11/24 01:08:10;;;;;;;4.47;3.10;;;;;;;9.14;100.00;100932.16;2088549;28;20194;-71
2023/11/24 01:09:11;;;;;;;5.60;3.07;;;;;;;9.11;100.00;100931.00;2089046;28;20181;-71
2023/11/24 01:10:11;;;;;;;5.60;2.97;;;;;;;9.05;100.00;100920.81;2096071;28;20592;-70
2023/11/24 01:11:12;;;;;;;3.83;2.67;;;;;;;9.01;100.00;100926.41;2090280;28;20198;-71
2023/11/24 01:12:12;;;;;;;6.97;3.50;;;;;;;8.99;100.00;100920.53;2093506;28;20652;-71
2023/11/24 01:13:13;;;;;;;6.70;3.97;;;;;;;8.92;100.00;100928.88;2093204;28;20189;-71
2023/11/24 01:14:13;;;;;;;5.27;2.73;;;;;;;8.81;100.00;100917.19;2088548;28;20181;-71
2023/11/24 01:15:14;;;;;;;4.67;2.97;;;;;;;8.83;100.00;100925.06;2089618;28;20200;-71
2023/11/24 01:16:15;;;;;;;4.43;2.67;;;;;;;8.73;100.00;100928.72;2096603;28;20206;-71
2023/11/24 01:17:16;;;;;;;5.27;2.87;;;;;;;8.72;100.00;100916.13;2096353;28;20195;-71
2023/11/24 01:18:18;;;;;;;6.97;4.10;;;;;;;7.63;100.00;100751.63;2096592;28;20184;-71
2023/11/24 01:19:18;;;;;;;5.87;3.63;;;;;;;8.64;100.00;100909.91;2096141;28;20880;-71
2023/11/24 01:20:19;;;;;;;8.20;3.97;;;;;;;8.54;100.00;100896.19;2092177;28;20446;-71
2023/11/24 01:21:19;;;;;;;6.83;3.17;;;;;;;8.63;100.00;100902.00;2091453;28;20203;-71
2023/11/24 01:22:20;;;;;;;6.30;3.10;;;;;;;8.64;100.00;100909.09;2095694;28;20172;-71
2023/11/24 01:23:20;;;;;;;5.50;3.30;;;;;;;8.62;100.00;100908.72;2096206;28;20179;-71
2023/11/24 01:24:21;;;;;;;5.70;3.03;;;;;;;8.61;100.00;100899.66;2097429;28;20174;-71
2023/11/24 01:25:21;;;;;;;5.53;3.30;;;;;;;8.65;100.00;100899.59;2096765;28;20215;-70
2023/11/24 01:26:22;;;;;;;7.23;3.50;;;;;;;8.64;100.00;100895.28;2096039;28;20209;-70
2023/11/24 01:27:22;;;;;;;6.00;3.10;;;;;;;8.60;100.00;100900.06;2091237;28;20207;-71
2023/11/24 01:28:23;;;;;;;4.93;2.90;;;;;;;8.56;100.00;100899.34;2091528;28;20624;-71
2023/11/24 01:29:23;;;;;;;6.97;4.10;;;;;;;8.53;100.00;100897.38;2096346;28;20175;-70
2023/11/24 01:30:24;;;;;;;6.23;3.60;;;;;;;8.22;100.00;100841.34;2094931;28;20182;-71
2023/11/24 01:31:25;;;;;;;8.43;3.80;;;;;;;8.56;100.00;100891.81;2088478;28;20561;-71
2023/11/24 01:32:25;;;;;;;6.47;3.50;;;;;;;8.60;100.00;100889.00;2097442;28;20216;-71
2023/11/24 01:33:26;;;;;;;6.97;3.77;;;;;;;8.57;100.00;100893.38;2089651;28;20450;-71
2023/11/24 01:34:26;;;;;;;6.50;4.00;;;;;;;8.59;100.00;100893.75;2088700;28;20197;-71
2023/11/24 01:35:27;;;;;;;6.33;3.03;;;;;;;8.60;100.00;100881.50;2092773;28;20213;-71
2023/11/24 01:36:28;;;;;;;6.20;3.30;;;;;;;7.89;100.00;100781.31;2093091;28;20755;-71
2023/11/24 01:37:28;;;;;;;5.63;3.40;;;;;;;8.62;100.00;100884.63;2090050;28;20513;-71
2023/11/24 01:38:29;;;;;;;5.07;2.77;;;;;;;8.41;100.00;100846.22;2095849;28;20283;-70
2023/11/24 01:39:29;;;;;;;6.47;3.27;;;;;;;8.53;100.00;100865.03;2088884;28;20190;-70
2023/11/24 01:40:30;;;;;;;5.37;3.53;;;;;;;8.58;100.00;100863.78;2088601;28;20195;-70
2023/11/24 01:41:31;;;;;;;6.47;3.17;;;;;;;8.59;100.00;100871.66;2094551;28;20204;-70
2023/11/24 01:42:37;;;;;;;7.22;3.33;;;;;;;8.38;100.00;100838.78;2091626;28;20192;-70
2023/11/24 01:43:37;;;;;;;6.22;3.28;;;;;;;8.63;100.00;100866.91;2088650;28;20677;-71
2023/11/24 01:44:40;;;;;;;8.07;3.60;;;;;;;8.63;100.00;100866.09;2088399;28;20563;-70
2023/11/24 01:45:42;;;;;;;6.73;4.03;;;;;;;8.49;100.00;100856.00;2090013;28;20218;-70
2023/11/24 01:46:42;;;;;;;7.37;3.37;;;;;;;8.58;100.00;100861.81;2091110;28;20443;-70
2023/11/24 01:47:44;;;;;;;6.50;3.70;;;;;;;8.54;100.00;100858.31;2094602;28;20930;-71
2023/11/24 01:48:44;;;;;;;6.07;2.83;;;;;;;7.71;100.00;100736.59;2088339;28;20554;-70
2023/11/24 01:49:45;;;;;;;8.80;3.77;;;;;;;8.60;100.00;100856.66;2088801;28;20409;-70
2023/11/24 01:50:46;;;;;;;6.50;3.37;;;;;;;8.58;100.00;100858.25;2088628;28;20295;-70
2023/11/24 01:51:53;;;;;;;5.93;3.10;;;;;;;8.53;100.00;100850.44;2094755;28;20422;-70
2023/11/24 01:52:53;;;;;;;7.07;2.97;;;;;;;8.55;100.00;100842.50;2096687;28;20449;-70
2023/11/24 01:53:54;;;;;;;5.77;3.10;;;;;;;8.57;100.00;100838.13;2096808;28;20472;-70
2023/11/24 01:54:54;;;;;;;5.50;2.77;;;;;;;8.18;100.00;100790.06;2092994;28;20196;-71
2023/11/24 01:55:56;;;;;;;5.07;2.90;;;;;;;8.52;100.00;100841.38;2088867;28;20174;-70
2023/11/24 01:56:57;;;;;;;5.90;2.97;;;;;;;8.53;100.00;100840.19;2088832;28;20683;-71
2023/11/24 01:57:58;;;;;;;6.93;3.40;;;;;;;7.74;100.00;100724.72;2096775;28;20420;-70
2023/11/24 01:58:59;;;;;;;5.27;3.33;;;;;;;8.48;100.00;100846.16;2088404;28;20412;-71
2023/11/24 02:00:00;;;;;;;5.80;3.30;;;;;;;7.69;100.00;100716.88;2088469;28;20254;-71
2023/11/24 02:01:01;;;;;;;6.30;3.90;;;;;;;8.48;100.00;100837.06;2088184;28;20244;-70
2023/11/24 02:02:02;;;;;;;7.87;3.97;;;;;;;8.36;100.00;100816.28;2087595;28;20191;-70
2023/11/24 02:03:02;;;;;;;7.45;3.78;;;;;;;8.35;100.00;100817.50;2091427;28;20192;-70
2023/11/24 02:04:03;;;;;;;6.67;3.60;;;;;;;8.48;100.00;100840.63;2096431;28;20185;-71
2023/11/24 02:05:04;;;;;;;7.77;3.63;;;;;;;8.50;100.00;100829.19;2096509;28;20184;-71
2023/11/24 02:06:06;;;;;;;5.47;3.60;;;;;;;8.51;100.00;100834.25;2097110;28;20180;-70
2023/11/24 02:07:08;;;;;;;7.47;3.42;;;;;;;8.52;100.00;100832.31;2096110;28;20243;-71
2023/11/24 02:08:09;;;;;;;7.50;3.97;;;;;;;7.79;100.00;100718.00;2096826;28;20193;-71
2023/11/24 02:09:10;;;;;;;5.45;3.13;;;;;;;8.57;100.00;100823.56;2090653;28;20200;-70
2023/11/24 02:10:13;;;;;;;7.33;3.30;;;;;;;8.00;100.00;100734.31;2093028;28;20182;-71
2023/11/24 02:11:14;;;;;;;7.15;3.88;;;;;;;8.60;100.00;100817.97;2095962;28;20639;-70
2023/11/24 02:12:14;;;;;;;5.68;3.47;;;;;;;8.59;100.00;100818.38;2093671;28;20536;-71
2023/11/24 02:13:15;;;;;;;7.50;3.63;;;;;;;8.59;100.00;100810.91;2089268;28;20248;-70
2023/11/24 02:14:15;;;;;;;6.70;3.77;;;;;;;8.61;100.00;100819.53;2097207;28;20190;-71
2023/11/24 02:15:16;;;;;;;6.90;3.60;;;;;;;8.63;100.00;100802.56;2096509;28;20192;-71
2023/11/24 02:16:18;;;;;;;5.53;3.30;;;;;;;8.63;100.00;100814.41;2095242;28;20190;-71
2023/11/24 02:17:18;;;;;;;8.18;3.60;;;;;;;8.65;100.00;100805.69;2095700;28;20188;-70
2023/11/24 02:18:19;;;;;;;9.07;4.13;;;;;;;8.65;100.00;100791.88;2092189;28;20208;-71
2023/11/24 02:19:20;;;;;;;6.40;3.38;;;;;;;8.11;100.00;100713.63;2088505;28;20210;-70
2023/11/24 02:20:25;;;;;;;7.20;3.90;;;;;;;8.60;100.00;100798.66;2089700;28;20164;-70
2023/11/24 02:21:25;;;;;;;8.10;3.83;;;;;;;8.54;100.00;100782.94;2095320;28;20427;-71
2023/11/24 02:22:25;;;;;;;6.70;3.57;;;;;;;8.60;100.00;100795.88;2097162;28;20424;-71
2023/11/24 02:23:27;;;;;;;6.80;4.10;;;;;;;8.60;100.00;100793.13;2088431;28;20633;-71
2023/11/24 02:24:27;;;;;;;8.97;4.40;;;;;;;8.63;100.00;100783.22;2095616;28;20647;-71
2023/11/24 02:25:28;;;;;;;8.57;3.70;;;;;;;8.66;100.00;100776.88;2090743;28;20904;-71
2023/11/24 02:26:28;;;;;;;6.90;3.30;;;;;;;8.70;100.00;100785.88;2086999;28;20661;-70
2023/11/24 02:27:29;;;;;;;6.73;4.10;;;;;;;8.67;100.00;100779.19;2088120;28;20274;-71
2023/11/24 02:28:29;;;;;;;6.17;3.53;;;;;;;8.67;100.00;100778.44;2089937;28;20217;-71
2023/11/24 02:29:30;;;;;;;5.47;3.43;;;;;;;7.97;100.00;100668.88;2096385;28;20185;-71
2023/11/24 02:30:30;;;;;;;6.57;3.40;;;;;;;8.66;100.00;100768.59;2097078;28;20211;-71
2023/11/24 02:31:32;;;;;;;6.23;3.37;;;;;;;8.68;100.00;100766.97;2088601;28;20202;-71
2023/11/24 02:32:33;;;;;;;5.00;2.60;;;;;;;8.67;100.00;100765.38;2088306;28;20560;-70
2023/11/24 02:33:34;;;;;;;7.83;3.20;;;;;;;8.73;100.00;100760.19;2093250;28;20444;-70
2023/11/24 02:34:34;;;;;;;8.10;3.50;;;;;;;8.40;100.00;100703.81;2092742;28;20507;-71
2023/11/24 02:35:37;;;;;;;8.43;3.30;;;;;;;8.79;100.00;100764.84;2091146;28;20192;-71
2023/11/24 02:36:38;;;;;;;6.23;3.50;;;;;;;8.82;100.00;100764.00;2095778;28;20184;-71
2023/11/24 02:37:38;;;;;;;6.43;3.37;;;;;;;8.81;100.00;100765.19;2095754;28;20416;-71
2023/11/24 02:38:39;;;;;;;5.90;2.87;;;;;;;8.86;100.00;100770.25;2088614;28;20664;-71
2023/11/24 02:39:39;;;;;;;5.40;3.10;;;;;;;8.13;100.00;100658.81;2088310;28;20211;-71
2023/11/24 02:40:42;;;;;;;4.53;2.77;;;;;;;8.89;100.00;100769.44;2089045;28;20270;-71
2023/11/24 02:41:43;;;;;;;5.37;3.23;;;;;;;8.90;100.00;100761.91;2089256;28;20191;-70
2023/11/24 02:42:44;;;;;;;8.33;3.20;;;;;;;8.95;100.00;100756.69;2093689;28;20443;-71
2023/11/24 02:43:44;;;;;;;6.47;3.47;;;;;;;8.74;100.00;100729.38;2095506;28;20198;-71
2023/11/24 02:44:45;;;;;;;4.93;2.90;;;;;;;8.96;100.00;100758.25;2092096;28;20171;-71
2023/11/24 02:45:45;;;;;;;5.27;3.07;;;;;;;8.94;100.00;100755.16;2097713;28;20570;-71
2023/11/24 02:46:47;;;;;;;5.33;3.40;;;;;;;8.94;100.00;100746.06;2089724;28;20194;-71
2023/11/24 02:47:48;;;;;;;7.27;3.10;;;;;;;8.97;100.00;100746.00;2089753;28;20653;-71
2023/11/24 02:48:49;;;;;;;6.47;3.10;;;;;;;8.94;100.00;100741.31;2090093;28;20554;-71
2023/11/24 02:49:49;;;;;;;5.30;3.17;;;;;;;8.98;100.00;100741.25;2089542;28;20447;-71
2023/11/24 02:50:49;;;;;;;4.40;3.13;;;;;;;8.84;100.00;100705.53;2093223;28;20662;-71
2023/11/24 02:51:50;;;;;;;6.90;3.47;;;;;;;8.63;100.00;100658.91;2097427;28;20225;-71
2023/11/24 02:52:50;;;;;;;6.50;3.57;;;;;;;9.17;100.00;100732.28;2097725;28;20619;-71
2023/11/24 02:53:51;;;;;;;5.30;3.30;;;;;;;9.22;100.00;100748.41;2105612;28;20191;-71
2023/11/24 02:54:52;;;;;;;6.13;3.73;;;;;;;9.28;100.00;100725.34;2097636;28;20264;-71
2023/11/24 02:55:52;;;;;;;4.63;3.03;;;;;;;9.31;100.00;100721.75;2089707;28;20231;-71
2023/11/24 02:56:53;;;;;;;6.93;3.27;;;;;;;9.35;100.00;100719.72;2089332;28;20264;-71
2023/11/24 02:57:53;;;;;;;5.60;3.60;;;;;;;9.43;100.00;100721.13;2089595;28;20496;-71
2023/11/24 02:58:54;;;;;;;6.37;3.40;;;;;;;9.47;100.00;100721.88;2089272;28;20216;-71
2023/11/24 02:59:54;;;;;;;7.30;3.40;;;;;;;9.42;100.00;100702.97;2089871;28;20173;-71
2023/11/24 03:00:55;;;;;;;7.77;3.57;;;;;;;9.55;100.00;100720.53;2089431;28;20168;-71
2023/11/24 03:01:56;;;;;;;6.33;3.43;;;;;;;8.85;100.00;100597.38;2089905;28;20251;-71
2023/11/24 03:02:56;;;;;;;6.20;3.80;;;;;;;9.63;100.00;100710.91;2096815;28;20434;-71
2023/11/24 03:03:57;;;;;;;6.37;3.57;;;;;;;9.67;100.00;100697.78;2091777;28;20192;-71
2023/11/24 03:04:58;;;;;;;7.87;3.43;;;;;;;9.72;100.00;100699.25;2094387;28;20645;-71
2023/11/24 03:06:05;;;;;;;5.43;3.30;;;;;;;9.76;100.00;100703.53;2094013;28;20300;-71
2023/11/24 03:07:09;;;;;;;4.47;2.87;;;;;;;9.80;100.00;100689.63;2092221;28;20433;-71
2023/11/24 03:08:09;;;;;;;6.73;3.60;;;;;;;9.85;100.00;100683.59;2096869;28;20414;-71
2023/11/24 03:09:10;;;;;;;6.63;3.60;;;;;;;9.84;100.00;100685.56;2097601;28;20960;-71
2023/11/24 03:10:11;;;;;;;6.70;3.50;;;;;;;9.90;100.00;100686.63;2098301;28;20221;-71
2023/11/24 03:11:11;;;;;;;5.97;3.50;;;;;;;9.02;100.00;100535.44;2097346;28;20199;-71
2023/11/24 03:12:12;;;;;;;5.53;3.67;;;;;;;9.98;100.00;100687.28;2098123;28;20449;-71
2023/11/24 03:13:16;;;;;;;7.33;3.40;;;;;;;10.00;100.00;100682.09;2092303;28;20195;-71
2023/11/24 03:14:16;;;;;;;6.33;3.40;;;;;;;10.01;100.00;100683.66;2089582;28;20195;-71
2023/11/24 03:15:16;;;;;;;6.03;3.13;;;;;;;10.02;100.00;100680.47;2089323;28;20429;-71
2023/11/24 03:16:17;;;;;;;4.10;2.70;;;;;;;10.02;100.00;100682.44;2090890;28;20191;-71
2023/11/24 03:17:17;;;;;;;5.10;2.70;;;;;;;10.06;100.00;100689.53;2097664;28;20199;-71
2023/11/24 03:18:18;;;;;;;6.10;3.30;;;;;;;10.09;100.00;100682.34;2098296;28;20260;-71
2023/11/24 03:19:19;;;;;;;6.47;3.50;;;;;;;10.07;100.00;100682.78;2097426;28;20191;-71
2023/11/24 03:20:21;;;;;;;8.73;3.60;;;;;;;9.46;100.00;100590.31;2097852;28;20242;-71
2023/11/24 03:21:21;;;;;;;7.23;3.43;;;;;;;10.09;100.00;100676.81;2097093;28;20525;-71
2023/11/24 03:22:22;;;;;;;5.60;3.33;;;;;;;10.12;100.00;100673.19;2093386;28;20521;-71
2023/11/24 03:23:23;;;;;;;8.30;3.87;;;;;;;10.14;100.00;100666.00;2091799;28;20677;-71
2023/11/24 03:24:23;;;;;;;6.77;3.20;;;;;;;10.15;100.00;100650.94;2096151;28;20672;-71
2023/11/24 03:25:24;;;;;;;5.73;3.33;;;;;;;10.15;100.00;100647.41;2088927;28;20853;-71
2023/11/24 03:26:24;;;;;;;5.87;3.23;;;;;;;9.28;100.00;100509.66;2089366;28;20180;-71
2023/11/24 03:27:27;;;;;;;4.60;3.43;;;;;;;10.15;100.00;100636.34;2089474;28;20189;-71
2023/11/24 03:28:27;;;;;;;5.03;3.20;;;;;;;10.18;100.00;100638.22;2089540;28;20188;-71
2023/11/24 03:29:28;;;;;;;4.40;2.73;;;;;;;10.19;100.00;100625.97;2089398;28;20931;-71
2023/11/24 03:30:30;;;;;;;6.10;3.77;;;;;;;10.09;100.00;100611.13;2092600;28;20183;-71
2023/11/24 03:31:31;;;;;;;6.23;3.63;;;;;;;10.19;100.00;100623.97;2097084;28;20176;-71
2023/11/24 03:32:31;;;;;;;5.73;3.43;;;;;;;9.47;100.00;100513.63;2097621;28;20943;-71
2023/11/24 03:33:33;;;;;;;5.30;2.97;;;;;;;10.14;100.00;100627.22;2098112;28;20493;-71
2023/11/24 03:34:33;;;;;;;5.83;3.30;;;;;;;10.11;100.00;100621.78;2091791;28;20666;-71
2023/11/24 03:35:34;;;;;;;5.07;3.30;;;;;;;10.11;100.00;100633.66;2096906;28;20981;-71
2023/11/24 03:36:34;;;;;;;5.87;3.10;;;;;;;10.13;100.00;100635.97;2091391;28;20255;-71
2023/11/24 03:37:35;;;;;;;7.63;3.30;;;;;;;10.11;100.00;100632.84;2088314;28;20196;-71
2023/11/24 03:38:36;;;;;;;7.93;3.77;;;;;;;9.95;100.00;100630.00;2091580;28;20188;-71
2023/11/24 03:39:37;;;;;;;5.67;3.50;;;;;;;9.92;100.00;100622.56;2095531;28;20406;-71
2023/11/24 03:40:37;;;;;;;4.97;2.90;;;;;;;10.05;100.00;100642.88;2089307;28;20399;-71
2023/11/24 03:41:38;;;;;;;5.50;3.10;;;;;;;10.08;100.00;100645.56;2089435;28;20521;-71
2023/11/24 03:42:38;;;;;;;7.03;3.13;;;;;;;9.98;100.00;100613.31;2089501;28;20238;-71
2023/11/24 03:43:39;;;;;;;4.77;3.00;;;;;;;10.09;100.00;100630.50;2089233;28;20275;-71
2023/11/24 03:44:39;;;;;;;6.43;3.43;;;;;;;10.09;100.00;100619.44;2089288;28;20269;-71
2023/11/24 03:45:40;;;;;;;6.93;3.33;;;;;;;10.10;100.00;100617.47;2089439;28;20226;-71
2023/11/24 03:46:40;;;;;;;6.33;2.97;;;;;;;10.10;100.00;100621.00;2091096;28;20621;-71
2023/11/24 03:47:41;;;;;;;6.73;3.27;;;;;;;10.12;100.00;100618.59;2097232;28;20168;-71
2023/11/24 03:48:42;;;;;;;8.80;3.83;;;;;;;10.13;100.00;100613.81;2098009;28;20624;-71
2023/11/24 03:49:43;;;;;;;5.27;3.20;;;;;;;9.22;100.00;100477.44;2097349;28;20491;-71
2023/11/24 03:50:43;;;;;;;7.07;3.43;;;;;;;10.12;100.00;100606.72;2089995;28;20200;-71
2023/11/24 03:51:43;;;;;;;5.50;3.43;;;;;;;10.12;100.00;100615.03;2087926;28;20177;-71
2023/11/24 03:52:44;;;;;;;5.10;3.27;;;;;;;10.12;100.00;100612.25;2093155;28;20656;-71
2023/11/24 03:53:45;;;;;;;8.43;3.53;;;;;;;9.97;100.00;100599.91;2096782;28;20223;-71
2023/11/24 03:54:45;;;;;;;7.27;3.60;;;;;;;10.03;100.00;100610.03;2096971;28;20174;-71
2023/11/24 03:55:47;;;;;;;5.97;3.07;;;;;;;9.69;100.00;100564.53;2096738;28;20546;-71
2023/11/24 03:56:48;;;;;;;7.07;3.80;;;;;;;10.04;100.00;100617.16;2089304;28;20161;-71
2023/11/24 03:57:48;;;;;;;5.97;3.07;;;;;;;10.00;100.00;100608.13;2089120;28;20982;-71
2023/11/24 03:58:49;;;;;;;5.80;3.00;;;;;;;9.90;100.00;100594.53;2089412;28;20190;-71
2023/11/24 03:59:49;;;;;;;6.73;3.13;;;;;;;10.01;100.00;100609.72;2094281;28;20223;-71
2023/11/24 04:00:50;;;;;;;5.23;3.17;;;;;;;9.32;100.00;100491.00;2093415;28;20204;-71
2023/11/24 04:01:50;;;;;;;4.70;3.00;;;;;;;10.01;100.00;100593.09;2091205;28;20172;-70
2023/11/24 04:02:51;;;;;;;9.17;3.50;;;;;;;10.03;100.00;100593.44;2097230;28;20179;-71
2023/11/24 04:03:54;;;;;;;6.40;3.40;;;;;;;10.05;100.00;100581.97;2096873;28;20247;-71
2023/11/24 04:04:54;;;;;;;8.60;3.17;;;;;;;10.06;100.00;100584.31;2093780;28;20179;-71
2023/11/24 04:05:55;;;;;;;5.33;2.90;;;;;;;10.03;100.00;100579.59;2089977;28;20476;-71
2023/11/24 04:06:55;;;;;;;5.13;2.83;;;;;;;10.03;100.00;100579.59;2088399;28;20204;-71
2023/11/24 04:07:56;;;;;;;6.67;3.13;;;;;;;9.94;100.00;100570.31;2089428;28;20196;-71
2023/11/24 04:08:57;;;;;;;5.50;3.23;;;;;;;9.61;100.00;100522.41;2090132;28;20188;-71
2023/11/24 04:09:58;;;;;;;9.50;3.53;;;;;;;9.94;100.00;100579.38;2095101;28;20421;-71
2023/11/24 04:10:58;;;;;;;6.67;3.10;;;;;;;9.81;100.00;100550.03;2089027;28;20223;-71
2023/11/24 04:11:58;;;;;;;5.27;3.47;;;;;;;10.04;100.00;100572.13;2089500;28;20318;-71
2023/11/24 04:12:59;;;;;;;5.50;3.07;;;;;;;10.07;100.00;100569.25;2096911;28;20180;-71
2023/11/24 04:13:59;;;;;;;5.90;3.00;;;;;;;10.08;100.00;100572.78;2090704;28;20198;-71
2023/11/24 04:15:00;;;;;;;7.60;2.70;;;;;;;10.10;100.00;100573.16;2094316;28;20223;-71
2023/11/24 04:16:00;;;;;;;6.77;3.00;;;;;;;10.12;100.00;100574.28;2097069;28;20229;-71
2023/11/24 04:17:01;;;;;;;6.23;2.90;;;;;;;9.67;100.00;100500.53;2096751;28;20233;-71
2023/11/24 04:18:01;;;;;;;6.83;3.40;;;;;;;10.14;100.00;100574.63;2095469;28;20183;-71
2023/11/24 04:19:02;;;;;;;6.27;2.90;;;;;;;10.17;100.00;100564.69;2088693;28;20226;-71
2023/11/24 04:20:03;;;;;;;5.00;2.87;;;;;;;9.97;100.00;100527.94;2089549;28;20188;-71
2023/11/24 04:21:06;;;;;;;5.57;3.47;;;;;;;10.17;100.00;100562.69;2095240;28;20191;-71
2023/11/24 04:22:06;;;;;;;6.07;3.20;;;;;;;10.16;100.00;100552.84;2090282;28;20481;-71
2023/11/24 04:23:08;;;;;;;7.30;3.07;;;;;;;10.21;100.00;100551.53;2089086;28;20488;-71
2023/11/24 04:24:09;;;;;;;9.13;2.93;;;;;;;10.25;100.00;100555.00;2088964;28;20586;-71
2023/11/24 04:25:10;;;;;;;4.80;3.13;;;;;;;10.23;100.00;100543.56;2089045;28;20438;-71
2023/11/24 04:26:10;;;;;;;7.60;2.90;;;;;;;10.25;100.00;100546.69;2089080;28;20230;-71
2023/11/24 04:27:11;;;;;;;6.80;2.83;;;;;;;10.22;100.00;100539.25;2088527;28;20481;-71
2023/11/24 04:28:14;;;;;;;6.50;3.37;;;;;;;10.21;100.00;100541.25;2089305;28;20733;-71
2023/11/24 04:29:15;;;;;;;5.83;3.20;;;;;;;10.20;100.00;100542.44;2088754;28;20600;-71
2023/11/24 04:30:16;;;;;;;5.93;2.90;;;;;;;10.18;100.00;100544.06;2095230;28;20530;-71
2023/11/24 04:31:17;;;;;;;4.83;3.07;;;;;;;10.14;100.00;100541.41;2091278;28;20454;-71
2023/11/24 04:32:17;;;;;;;4.50;2.83;;;;;;;10.11;100.00;100538.72;2092441;28;20777;-71
2023/11/24 04:33:18;;;;;;;8.07;3.77;;;;;;;10.13;100.00;100550.13;2094648;28;20251;-71
2023/11/24 04:34:19;;;;;;;8.97;3.50;;;;;;;10.10;100.00;100551.00;2088871;28;20185;-71
2023/11/24 04:35:19;;;;;;;5.20;3.27;;;;;;;10.10;100.00;100548.25;2089283;28;20498;-71
2023/11/24 04:36:19;;;;;;;6.77;3.37;;;;;;;10.01;100.00;100532.19;2096515;28;20187;-71
2023/11/24 04:37:20;;;;;;;6.40;3.27;;;;;;;10.00;100.00;100541.69;2090111;28;20195;-71
2023/11/24 04:38:21;;;;;;;4.93;3.10;;;;;;;8.74;100.00;100350.09;2094447;28;20183;-71
2023/11/24 04:39:21;;;;;;;5.67;3.03;;;;;;;10.02;100.00;100547.59;2096583;28;20711;-71
2023/11/24 04:40:22;;;;;;;8.47;3.50;;;;;;;10.02;100.00;100547.59;2097102;28;20247;-71
2023/11/24 04:41:22;;;;;;;5.30;3.03;;;;;;;9.89;100.00;100510.69;2096515;28;20186;-71